createdAt,value
2023-04-07T00:00:07.386Z,0
2023-04-07T00:03:07.856Z,0
2023-04-07T00:06:07.313Z,0
2023-04-07T00:09:07.349Z,0
2023-04-07T00:12:07.307Z,0
2023-04-07T00:15:07.328Z,0
2023-04-07T00:18:07.669Z,0
2023-04-07T00:21:07.405Z,0
2023-04-07T00:24:07.355Z,0
2023-04-07T00:27:07.374Z,0
2023-04-07T00:30:07.401Z,0
2023-04-07T00:33:11.933Z,0
2023-04-07T00:36:07.511Z,0
2023-04-07T00:39:07.344Z,0
2023-04-07T00:42:07.360Z,0
2023-04-07T00:45:07.403Z,0
2023-04-07T00:48:07.821Z,0
2023-04-07T00:51:07.323Z,0
2023-04-07T00:54:07.373Z,0
2023-04-07T00:57:07.346Z,0
2023-04-07T01:00:07.446Z,0
2023-04-07T01:03:08.964Z,0
2023-04-07T01:06:07.328Z,0
2023-04-07T01:09:07.334Z,0
2023-04-07T01:12:07.359Z,0
2023-04-07T01:15:07.297Z,0
2023-04-07T01:18:07.579Z,0
2023-04-07T01:21:07.285Z,0
2023-04-07T01:24:07.347Z,0
2023-04-07T01:27:07.327Z,0
2023-04-07T01:30:07.357Z,0
2023-04-07T01:33:07.737Z,0
2023-04-07T01:36:07.292Z,0
2023-04-07T01:39:07.322Z,0
2023-04-07T01:42:07.510Z,0
2023-04-07T01:45:07.336Z,0
2023-04-07T01:48:07.698Z,0
2023-04-07T01:51:07.314Z,0
2023-04-07T01:54:07.367Z,0
2023-04-07T01:57:07.336Z,0
2023-04-07T02:00:07.348Z,0
2023-04-07T02:03:08.183Z,0
2023-04-07T02:06:07.364Z,0
2023-04-07T02:09:07.301Z,0
2023-04-07T02:12:07.407Z,0
2023-04-07T02:15:07.410Z,0
2023-04-07T02:18:08.105Z,0
2023-04-07T02:21:07.350Z,0
2023-04-07T02:24:07.368Z,0
2023-04-07T02:27:07.286Z,0
2023-04-07T02:30:07.399Z,0
2023-04-07T02:33:07.643Z,0
2023-04-07T02:36:07.462Z,0
2023-04-07T02:39:07.308Z,0
2023-04-07T02:42:07.340Z,0
2023-04-07T02:45:07.335Z,0
2023-04-07T02:48:07.422Z,0
2023-04-07T02:51:07.380Z,0
2023-04-07T02:54:07.374Z,0
2023-04-07T02:57:07.326Z,0
2023-04-07T03:00:07.396Z,0
2023-04-07T03:03:08.384Z,0
2023-04-07T03:06:07.352Z,0
2023-04-07T03:09:07.327Z,0
2023-04-07T03:12:07.337Z,0
2023-04-07T03:15:07.338Z,0
2023-04-07T03:18:07.630Z,0
2023-04-07T03:21:07.411Z,0
2023-04-07T03:24:07.333Z,0
2023-04-07T03:27:07.358Z,0
2023-04-07T03:30:07.386Z,0
2023-04-07T03:33:07.633Z,0
2023-04-07T03:36:07.583Z,0
2023-04-07T03:39:07.386Z,0
2023-04-07T03:42:07.418Z,0
2023-04-07T03:45:07.399Z,0
2023-04-07T03:48:07.591Z,0
2023-04-07T03:51:07.367Z,0
2023-04-07T03:54:07.423Z,0
2023-04-07T03:57:07.343Z,0
2023-04-07T04:00:07.454Z,0
2023-04-07T04:03:07.877Z,0
2023-04-07T04:06:07.491Z,0
2023-04-07T04:09:07.389Z,3
2023-04-07T04:12:07.364Z,3
2023-04-07T04:15:07.364Z,7
2023-04-07T04:18:07.625Z,10
2023-04-07T04:21:07.322Z,17
2023-04-07T04:24:07.360Z,27
2023-04-07T04:27:07.281Z,43
2023-04-07T04:30:07.440Z,67
2023-04-07T04:33:07.787Z,100
2023-04-07T04:36:07.431Z,143
2023-04-07T04:39:07.313Z,200
2023-04-07T04:42:07.435Z,263
2023-04-07T04:45:07.595Z,350
2023-04-07T04:48:07.665Z,460
2023-04-07T04:51:07.380Z,567
2023-04-07T04:54:07.427Z,673
2023-04-07T04:57:07.377Z,800
2023-04-07T05:00:07.356Z,950
2023-04-07T05:03:08.531Z,1127
2023-04-07T05:06:07.353Z,1297
2023-04-07T05:09:07.346Z,1443
2023-04-07T05:12:07.410Z,1660
2023-04-07T05:15:07.384Z,1810
2023-04-07T05:18:07.659Z,2013
2023-04-07T05:21:07.410Z,2230
2023-04-07T05:24:09.314Z,2433
2023-04-07T05:27:07.361Z,2650
2023-04-07T05:30:07.784Z,2890
2023-04-07T05:33:07.789Z,3033
2023-04-07T05:36:07.845Z,3100
2023-04-07T05:39:07.408Z,3093
2023-04-07T05:42:07.424Z,2883
2023-04-07T05:45:07.433Z,2650
2023-04-07T05:48:07.625Z,2490
2023-04-07T05:51:07.374Z,2493
2023-04-07T05:54:07.436Z,2563
2023-04-07T05:57:07.370Z,2670
2023-04-07T06:00:07.493Z,2737
2023-04-07T06:03:08.758Z,2870
2023-04-07T06:06:07.425Z,3200
2023-04-07T06:09:09.157Z,3513
2023-04-07T06:12:07.441Z,3703
2023-04-07T06:15:07.485Z,4167
2023-04-07T06:18:07.684Z,5120
2023-04-07T06:21:07.376Z,5037
2023-04-07T06:24:07.386Z,6123
2023-04-07T06:27:07.485Z,7097
2023-04-07T06:30:07.565Z,6890
2023-04-07T06:33:07.596Z,7570
2023-04-07T06:36:07.399Z,8747
2023-04-07T06:39:07.372Z,9847
2023-04-07T06:42:07.473Z,11187
2023-04-07T06:45:07.447Z,12473
2023-04-07T06:48:07.766Z,13950
2023-04-07T06:51:07.424Z,15900
2023-04-07T06:54:07.480Z,16270
2023-04-07T06:57:07.355Z,13993
2023-04-07T07:00:08.031Z,12977
2023-04-07T07:03:08.485Z,11777
2023-04-07T07:06:07.413Z,11513
2023-04-07T07:09:07.612Z,11633
2023-04-07T07:12:10.516Z,11747
2023-04-07T07:15:07.383Z,11950
2023-04-07T07:18:07.685Z,12190
2023-04-07T07:21:07.357Z,12243
2023-04-07T07:24:07.461Z,12833
2023-04-07T07:27:07.704Z,13737
2023-04-07T07:30:07.630Z,14377
2023-04-07T07:33:07.800Z,12927
2023-04-07T07:36:07.543Z,15040
2023-04-07T07:39:07.503Z,15947
2023-04-07T07:42:07.450Z,16790
2023-04-07T07:45:07.436Z,18497
2023-04-07T07:48:07.861Z,17897
2023-04-07T07:51:07.545Z,18827
2023-04-07T07:54:07.355Z,21220
2023-04-07T07:57:07.438Z,24973
2023-04-07T08:00:07.450Z,26897
2023-04-07T08:03:07.861Z,28957
2023-04-07T08:06:07.457Z,29953
2023-04-07T08:09:07.538Z,31967
2023-04-07T08:12:07.392Z,33467
2023-04-07T08:15:07.429Z,34780
2023-04-07T08:18:07.708Z,35677
2023-04-07T08:21:07.400Z,37177
2023-04-07T08:24:07.458Z,38570
2023-04-07T08:27:07.430Z,39537
2023-04-07T08:30:07.547Z,38220
2023-04-07T08:33:07.784Z,43503
2023-04-07T08:36:07.868Z,46100
2023-04-07T08:39:07.544Z,47593
2023-04-07T08:42:07.446Z,47853
2023-04-07T08:45:07.971Z,47920
2023-04-07T08:48:07.701Z,46933
2023-04-07T08:51:07.398Z,45790
2023-04-07T08:54:07.492Z,45897
2023-04-07T08:57:07.518Z,46353
2023-04-07T09:00:07.642Z,46873
2023-04-07T09:03:10.160Z,47627
2023-04-07T09:06:07.533Z,48450
2023-04-07T09:09:07.460Z,49100
2023-04-07T09:12:07.504Z,48957
2023-04-07T09:15:07.427Z,45350
2023-04-07T09:18:07.812Z,45190
2023-04-07T09:21:07.376Z,50953
2023-04-07T09:24:07.360Z,52050
2023-04-07T09:27:07.389Z,48620
2023-04-07T09:30:07.542Z,48027
2023-04-07T09:33:07.766Z,54170
2023-04-07T09:36:07.812Z,54993
2023-04-07T09:39:07.458Z,55010
2023-04-07T09:42:07.484Z,54633
2023-04-07T09:45:07.564Z,54430
2023-04-07T09:48:07.498Z,54650
2023-04-07T09:51:07.419Z,54540
2023-04-07T09:54:07.551Z,55017
2023-04-07T09:57:07.530Z,54970
2023-04-07T10:00:07.554Z,55620
2023-04-07T10:03:08.405Z,55927
2023-04-07T10:06:07.511Z,56107
2023-04-07T10:09:07.470Z,56233
2023-04-07T10:12:07.424Z,56413
2023-04-07T10:15:07.454Z,56690
2023-04-07T10:18:07.905Z,57183
2023-04-07T10:21:07.580Z,57223
2023-04-07T10:24:07.408Z,57670
2023-04-07T10:27:07.384Z,57620
2023-04-07T10:30:07.608Z,57667
2023-04-07T10:33:07.661Z,58030
2023-04-07T10:36:07.962Z,58247
2023-04-07T10:39:07.464Z,58257
2023-04-07T10:42:07.511Z,58493
2023-04-07T10:45:07.690Z,58587
2023-04-07T10:48:07.887Z,58927
2023-04-07T10:51:07.438Z,58740
2023-04-07T10:54:07.384Z,58650
2023-04-07T10:57:07.501Z,58803
2023-04-07T11:00:07.543Z,58957
2023-04-07T11:03:08.597Z,58970
2023-04-07T11:06:07.363Z,59040
2023-04-07T11:09:07.424Z,58653
2023-04-07T11:12:07.496Z,49613
2023-04-07T11:15:07.501Z,29957
2023-04-07T11:18:07.610Z,28417
2023-04-07T11:21:07.435Z,42717
2023-04-07T11:24:07.409Z,39900
2023-04-07T11:27:07.402Z,41600
2023-04-07T11:30:07.482Z,61310
2023-04-07T11:33:07.750Z,48477
2023-04-07T11:36:08.280Z,50433
2023-04-07T11:39:07.583Z,57633
2023-04-07T11:42:07.363Z,52190
2023-04-07T11:45:09.877Z,49360
2023-04-07T11:48:07.568Z,49913
2023-04-07T11:51:07.446Z,56917
2023-04-07T11:54:07.619Z,55460
2023-04-07T11:57:07.411Z,49830
2023-04-07T12:00:07.564Z,48783
2023-04-07T12:03:08.939Z,59887
2023-04-07T12:06:07.525Z,58757
2023-04-07T12:09:07.444Z,56490
2023-04-07T12:12:07.429Z,60807
2023-04-07T12:15:07.430Z,55423
2023-04-07T12:18:07.796Z,60387
2023-04-07T12:21:07.412Z,59853
2023-04-07T12:24:07.405Z,50167
2023-04-07T12:27:07.418Z,50673
2023-04-07T12:30:07.435Z,52397
2023-04-07T12:33:07.765Z,52077
2023-04-07T12:36:07.761Z,47447
2023-04-07T12:39:07.387Z,59090
2023-04-07T12:42:07.546Z,55940
2023-04-07T12:45:07.506Z,57177
2023-04-07T12:48:07.545Z,58823
2023-04-07T12:51:07.343Z,55200
2023-04-07T12:54:07.382Z,58297
2023-04-07T12:57:07.400Z,55473
2023-04-07T13:00:07.602Z,53530
2023-04-07T13:03:08.407Z,52613
2023-04-07T13:06:07.442Z,52057
2023-04-07T13:09:07.480Z,51587
2023-04-07T13:12:07.363Z,51003
2023-04-07T13:15:07.636Z,50237
2023-04-07T13:18:07.621Z,50193
2023-04-07T13:24:07.393Z,48827
2023-04-07T13:27:07.511Z,48620
2023-04-07T13:30:07.417Z,46547
2023-04-07T13:33:07.682Z,47637
2023-04-07T13:36:07.527Z,47067
2023-04-07T13:39:07.406Z,46520
2023-04-07T13:42:07.401Z,46227
2023-04-07T13:45:07.437Z,45657
2023-04-07T13:48:07.757Z,45283
2023-04-07T13:51:07.474Z,45070
2023-04-07T13:54:07.456Z,45080
2023-04-07T13:57:07.316Z,44227
2023-04-07T14:00:07.602Z,43840
2023-04-07T14:03:08.305Z,43227
2023-04-07T14:06:07.464Z,42537
2023-04-07T14:09:07.388Z,41783
2023-04-07T14:12:07.332Z,41590
2023-04-07T14:15:07.425Z,41217
2023-04-07T14:18:07.678Z,40600
2023-04-07T14:21:07.327Z,39400
2023-04-07T14:24:07.443Z,39097
2023-04-07T14:27:07.390Z,38367
2023-04-07T14:30:07.474Z,35917
2023-04-07T14:33:11.689Z,36693
2023-04-07T14:36:07.711Z,36970
2023-04-07T14:39:07.422Z,36370
2023-04-07T14:42:07.410Z,35847
2023-04-07T14:45:07.566Z,34987
2023-04-07T14:48:07.601Z,34573
2023-04-07T14:51:16.661Z,34157
2023-04-07T14:54:07.401Z,33363
2023-04-07T14:57:07.438Z,32723
2023-04-07T15:00:07.531Z,32000
2023-04-07T15:03:08.617Z,30993
2023-04-07T15:06:07.402Z,28723
2023-04-07T15:09:07.431Z,30533
2023-04-07T15:12:07.457Z,29733
2023-04-07T15:15:07.583Z,29000
2023-04-07T15:18:08.733Z,28617
2023-04-07T15:21:07.467Z,28130
2023-04-07T15:24:07.444Z,27270
2023-04-07T15:27:07.399Z,26570
2023-04-07T15:30:07.694Z,26053
2023-04-07T15:33:07.646Z,25677
2023-04-07T15:36:07.753Z,25230
2023-04-07T15:39:07.417Z,24610
2023-04-07T15:42:07.352Z,23867
2023-04-07T15:45:07.433Z,23143
2023-04-07T15:48:07.654Z,22407
2023-04-07T15:51:07.508Z,21727
2023-04-07T15:54:07.390Z,21013
2023-04-07T15:57:07.493Z,20457
2023-04-07T16:00:07.880Z,19863
2023-04-07T16:03:08.339Z,19263
2023-04-07T16:06:07.415Z,18873
2023-04-07T16:09:07.384Z,18553
2023-04-07T16:12:07.471Z,17763
2023-04-07T16:15:07.622Z,17240
2023-04-07T16:18:07.731Z,16760
2023-04-07T16:21:11.261Z,16143
2023-04-07T16:24:07.412Z,15523
2023-04-07T16:27:10.807Z,14957
2023-04-07T16:30:07.497Z,14253
2023-04-07T16:33:08.004Z,13623
2023-04-07T16:36:07.583Z,13113
2023-04-07T16:39:07.475Z,12517
2023-04-07T16:42:07.406Z,11907
2023-04-07T16:45:07.442Z,11330
2023-04-07T16:48:07.618Z,10690
2023-04-07T16:51:07.416Z,10097
2023-04-07T16:54:07.448Z,9407
2023-04-07T16:57:07.397Z,8710
2023-04-07T17:00:07.820Z,8097
2023-04-07T17:03:08.130Z,3627
2023-04-07T17:06:07.466Z,3287
2023-04-07T17:09:07.347Z,3113
2023-04-07T17:12:07.367Z,2957
2023-04-07T17:15:07.361Z,2787
2023-04-07T17:18:07.547Z,2610
2023-04-07T17:21:07.373Z,2447
2023-04-07T17:24:07.332Z,2277
2023-04-07T17:27:07.367Z,2103
2023-04-07T17:30:07.671Z,1920
2023-04-07T17:33:07.680Z,1740
2023-04-07T17:36:07.626Z,1567
2023-04-07T17:39:07.726Z,1393
2023-04-07T17:42:07.423Z,1220
2023-04-07T17:45:07.361Z,1047
2023-04-07T17:48:07.699Z,883
2023-04-07T17:51:07.313Z,733
2023-04-07T17:54:07.601Z,600
2023-04-07T17:57:07.570Z,473
2023-04-07T18:00:07.455Z,363
2023-04-07T18:03:08.421Z,277
2023-04-07T18:06:07.371Z,213
2023-04-07T18:09:07.349Z,153
2023-04-07T18:12:07.343Z,103
2023-04-07T18:15:07.379Z,63
2023-04-07T18:18:07.670Z,37
2023-04-07T18:21:07.321Z,23
2023-04-07T18:24:07.360Z,13
2023-04-07T18:27:07.303Z,7
2023-04-07T18:30:07.354Z,3
2023-04-07T18:33:07.593Z,3
2023-04-07T18:36:07.818Z,3
2023-04-07T18:39:07.356Z,0
2023-04-07T18:42:07.382Z,0
2023-04-07T18:45:07.472Z,0
2023-04-07T18:48:07.551Z,0
2023-04-07T18:51:07.314Z,0
2023-04-07T18:54:07.348Z,0
2023-04-07T18:57:07.332Z,0
2023-04-07T19:00:07.388Z,0
2023-04-07T19:03:08.107Z,0
2023-04-07T19:06:09.832Z,0
2023-04-07T19:09:07.398Z,0
2023-04-07T19:12:07.393Z,0
2023-04-07T19:15:07.274Z,0
2023-04-07T19:18:07.386Z,0
2023-04-07T19:21:07.372Z,0
2023-04-07T19:24:07.314Z,0
2023-04-07T19:27:07.380Z,0
2023-04-07T19:30:07.295Z,0
2023-04-07T19:33:07.546Z,0
2023-04-07T19:36:07.577Z,0
2023-04-07T19:39:07.351Z,0
2023-04-07T19:42:07.328Z,0
2023-04-07T19:45:07.324Z,0
2023-04-07T19:48:07.626Z,0
2023-04-07T19:51:09.731Z,0
2023-04-07T19:54:07.352Z,0
2023-04-07T19:57:07.373Z,0
2023-04-07T20:00:07.484Z,0
2023-04-07T20:03:08.158Z,0
2023-04-07T20:06:07.341Z,0
2023-04-07T20:09:07.323Z,0
2023-04-07T20:12:07.472Z,0
2023-04-07T20:15:07.311Z,0
2023-04-07T20:18:07.615Z,0
2023-04-07T20:21:07.321Z,0
2023-04-07T20:24:07.365Z,0
2023-04-07T20:27:07.346Z,0
2023-04-07T20:30:07.367Z,0
2023-04-07T20:33:07.555Z,0
2023-04-07T20:36:07.530Z,0
2023-04-07T20:39:07.315Z,0
2023-04-07T20:42:07.341Z,0
2023-04-07T20:45:07.498Z,0
2023-04-07T20:48:07.781Z,0
2023-04-07T20:51:07.352Z,0
2023-04-07T20:54:07.370Z,0
2023-04-07T20:57:07.350Z,0
2023-04-07T21:00:07.462Z,0
2023-04-07T21:03:08.275Z,0
2023-04-07T21:06:07.339Z,0
2023-04-07T21:09:07.323Z,0
2023-04-07T21:12:07.347Z,0
2023-04-07T21:15:07.351Z,0
2023-04-07T21:18:07.780Z,0
2023-04-07T21:21:07.335Z,0
2023-04-07T21:24:07.361Z,0
2023-04-07T21:27:07.332Z,0
2023-04-07T21:30:07.386Z,0
2023-04-07T21:33:07.775Z,0
2023-04-07T21:36:07.716Z,0
2023-04-07T21:39:07.352Z,0
2023-04-07T21:42:07.548Z,0
2023-04-07T21:45:07.494Z,0
2023-04-07T21:48:07.579Z,0
2023-04-07T21:51:07.449Z,0
2023-04-07T21:54:07.408Z,0
2023-04-07T21:57:07.409Z,0
2023-04-07T22:00:08.345Z,0
2023-04-07T22:03:08.814Z,0
2023-04-07T22:06:07.408Z,0
2023-04-07T22:09:10.088Z,0
2023-04-07T22:12:07.363Z,0
2023-04-07T22:15:07.345Z,0
2023-04-07T22:18:07.523Z,0
2023-04-07T22:21:07.362Z,0
2023-04-07T22:24:07.381Z,0
2023-04-07T22:27:07.320Z,0
2023-04-07T22:30:07.372Z,0
2023-04-07T22:33:09.007Z,0
2023-04-07T22:36:07.542Z,0
2023-04-07T22:39:07.372Z,0
2023-04-07T22:42:07.368Z,0
2023-04-07T22:45:07.321Z,0
2023-04-07T22:48:07.498Z,0
2023-04-07T22:51:07.302Z,0
2023-04-07T22:54:07.359Z,0
2023-04-07T22:57:07.313Z,0
2023-04-07T23:00:07.426Z,0
2023-04-07T23:03:08.042Z,0
2023-04-07T23:06:07.319Z,0
2023-04-07T23:09:07.267Z,0
2023-04-07T23:12:07.303Z,0
2023-04-07T23:15:07.389Z,0
2023-04-07T23:18:07.803Z,0
2023-04-07T23:21:07.345Z,0
2023-04-07T23:24:07.320Z,0
2023-04-07T23:27:07.313Z,0
2023-04-07T23:30:07.522Z,0
2023-04-07T23:33:07.487Z,0
2023-04-07T23:36:07.637Z,0
2023-04-07T23:39:07.302Z,0
2023-04-07T23:42:07.390Z,0
2023-04-07T23:45:07.350Z,0
2023-04-07T23:48:07.647Z,0
2023-04-07T23:51:07.337Z,0
2023-04-07T23:54:07.378Z,0
2023-04-07T23:57:07.341Z,0
